sensor_id;sensor_type;location;lat;lon;timestamp;P1;durP1;ratioP1;P2;durP2;ratioP2
17662;SDS011;8950;56.892;15.090;2022-11-13T00:00:36;8.45;;;4.28;;
17662;SDS011;8950;56.892;15.090;2022-11-13T00:03:02;9.57;;;3.67;;
17662;SDS011;8950;56.892;15.090;2022-11-13T00:05:30;6.63;;;3.05;;
17662;SDS011;8950;56.892;15.090;2022-11-13T00:07:57;6.75;;;3.50;;
17662;SDS011;8950;56.892;15.090;2022-11-13T00:10:23;8.32;;;3.88;;
17662;SDS011;8950;56.892;15.090;2022-11-13T00:12:49;9.32;;;3.53;;
17662;SDS011;8950;56.892;15.090;2022-11-13T00:15:17;8.32;;;3.60;;
17662;SDS011;8950;56.892;15.090;2022-11-13T00:17:44;7.75;;;3.33;;
17662;SDS011;8950;56.892;15.090;2022-11-13T00:20:10;6.18;;;3.47;;
17662;SDS011;8950;56.892;15.090;2022-11-13T00:22:38;9.10;;;3.42;;
17662;SDS011;8950;56.892;15.090;2022-11-13T00:25:05;7.57;;;3.78;;
17662;SDS011;8950;56.892;15.090;2022-11-13T00:27:31;6.47;;;3.58;;
17662;SDS011;8950;56.892;15.090;2022-11-13T00:29:58;6.53;;;3.70;;
17662;SDS011;8950;56.892;15.090;2022-11-13T00:32:24;6.07;;;3.17;;
17662;SDS011;8950;56.892;15.090;2022-11-13T00:34:51;8.00;;;3.55;;
17662;SDS011;8950;56.892;15.090;2022-11-13T00:37:17;5.25;;;3.03;;
17662;SDS011;8950;56.892;15.090;2022-11-13T00:39:45;5.03;;;2.97;;
17662;SDS011;8950;56.892;15.090;2022-11-13T00:42:12;7.15;;;3.13;;
17662;SDS011;8950;56.892;15.090;2022-11-13T00:44:38;7.10;;;3.70;;
17662;SDS011;8950;56.892;15.090;2022-11-13T00:47:05;7.82;;;3.42;;
17662;SDS011;8950;56.892;15.090;2022-11-13T00:49:31;8.40;;;3.50;;
17662;SDS011;8950;56.892;15.090;2022-11-13T00:51:58;6.85;;;3.83;;
17662;SDS011;8950;56.892;15.090;2022-11-13T00:54:26;7.03;;;3.45;;
17662;SDS011;8950;56.892;15.090;2022-11-13T00:56:54;8.07;;;3.42;;
17662;SDS011;8950;56.892;15.090;2022-11-13T00:59:21;7.03;;;3.20;;
17662;SDS011;8950;56.892;15.090;2022-11-13T01:01:47;7.22;;;3.40;;
17662;SDS011;8950;56.892;15.090;2022-11-13T01:04:13;7.78;;;3.25;;
17662;SDS011;8950;56.892;15.090;2022-11-13T01:06:40;7.03;;;3.05;;
17662;SDS011;8950;56.892;15.090;2022-11-13T01:09:06;5.93;;;3.25;;
17662;SDS011;8950;56.892;15.090;2022-11-13T01:11:33;9.18;;;3.72;;
17662;SDS011;8950;56.892;15.090;2022-11-13T01:14:01;6.97;;;3.28;;
17662;SDS011;8950;56.892;15.090;2022-11-13T01:16:27;8.93;;;3.53;;
17662;SDS011;8950;56.892;15.090;2022-11-13T01:18:54;7.13;;;3.45;;
17662;SDS011;8950;56.892;15.090;2022-11-13T01:21:21;8.45;;;3.60;;
17662;SDS011;8950;56.892;15.090;2022-11-13T01:23:48;7.20;;;3.20;;
17662;SDS011;8950;56.892;15.090;2022-11-13T01:26:15;7.53;;;3.28;;
17662;SDS011;8950;56.892;15.090;2022-11-13T01:28:42;6.85;;;3.00;;
17662;SDS011;8950;56.892;15.090;2022-11-13T01:31:11;7.72;;;3.22;;
17662;SDS011;8950;56.892;15.090;2022-11-13T01:33:38;9.20;;;3.67;;
17662;SDS011;8950;56.892;15.090;2022-11-13T01:36:05;9.02;;;3.72;;
17662;SDS011;8950;56.892;15.090;2022-11-13T01:38:33;5.45;;;3.33;;
17662;SDS011;8950;56.892;15.090;2022-11-13T01:40:59;7.90;;;3.45;;
17662;SDS011;8950;56.892;15.090;2022-11-13T01:43:26;8.25;;;2.92;;
17662;SDS011;8950;56.892;15.090;2022-11-13T01:48:43;7.88;;;3.38;;
17662;SDS011;8950;56.892;15.090;2022-11-13T01:51:13;5.63;;;3.13;;
17662;SDS011;8950;56.892;15.090;2022-11-13T01:53:41;6.30;;;2.92;;
17662;SDS011;8950;56.892;15.090;2022-11-13T01:56:08;8.45;;;3.70;;
17662;SDS011;8950;56.892;15.090;2022-11-13T01:58:35;7.32;;;3.40;;
17662;SDS011;8950;56.892;15.090;2022-11-13T02:01:02;6.82;;;3.08;;
17662;SDS011;8950;56.892;15.090;2022-11-13T02:03:29;7.07;;;3.80;;
17662;SDS011;8950;56.892;15.090;2022-11-13T02:05:57;8.38;;;3.22;;
17662;SDS011;8950;56.892;15.090;2022-11-13T02:08:23;6.00;;;3.17;;
17662;SDS011;8950;56.892;15.090;2022-11-13T02:10:50;6.15;;;3.35;;
17662;SDS011;8950;56.892;15.090;2022-11-13T02:13:16;7.50;;;3.33;;
17662;SDS011;8950;56.892;15.090;2022-11-13T02:15:43;6.07;;;2.92;;
17662;SDS011;8950;56.892;15.090;2022-11-13T02:18:11;6.85;;;3.50;;
17662;SDS011;8950;56.892;15.090;2022-11-13T02:20:39;7.93;;;3.50;;
17662;SDS011;8950;56.892;15.090;2022-11-13T02:23:13;6.68;;;3.65;;
17662;SDS011;8950;56.892;15.090;2022-11-13T02:25:44;9.25;;;3.80;;
17662;SDS011;8950;56.892;15.090;2022-11-13T02:28:12;7.40;;;3.60;;
17662;SDS011;8950;56.892;15.090;2022-11-13T02:30:39;12.20;;;4.07;;
17662;SDS011;8950;56.892;15.090;2022-11-13T02:33:16;5.90;;;3.50;;
17662;SDS011;8950;56.892;15.090;2022-11-13T02:35:44;8.88;;;3.40;;
17662;SDS011;8950;56.892;15.090;2022-11-13T02:38:10;7.70;;;3.00;;
17662;SDS011;8950;56.892;15.090;2022-11-13T02:40:37;5.68;;;3.45;;
17662;SDS011;8950;56.892;15.090;2022-11-13T02:43:05;6.32;;;3.22;;
17662;SDS011;8950;56.892;15.090;2022-11-13T02:45:32;6.47;;;3.55;;
17662;SDS011;8950;56.892;15.090;2022-11-13T02:47:58;6.93;;;3.75;;
17662;SDS011;8950;56.892;15.090;2022-11-13T02:50:25;9.90;;;3.83;;
17662;SDS011;8950;56.892;15.090;2022-11-13T02:52:51;10.00;;;3.17;;
17662;SDS011;8950;56.892;15.090;2022-11-13T02:55:18;6.15;;;2.92;;
17662;SDS011;8950;56.892;15.090;2022-11-13T02:57:44;5.75;;;2.92;;
17662;SDS011;8950;56.892;15.090;2022-11-13T03:00:12;7.10;;;3.28;;
17662;SDS011;8950;56.892;15.090;2022-11-13T03:02:39;7.95;;;3.03;;
17662;SDS011;8950;56.892;15.090;2022-11-13T03:05:06;10.15;;;3.50;;
17662;SDS011;8950;56.892;15.090;2022-11-13T03:07:32;5.10;;;2.90;;
17662;SDS011;8950;56.892;15.090;2022-11-13T03:09:58;6.55;;;3.28;;
17662;SDS011;8950;56.892;15.090;2022-11-13T03:12:25;6.38;;;3.03;;
17662;SDS011;8950;56.892;15.090;2022-11-13T03:14:51;7.35;;;3.35;;
17662;SDS011;8950;56.892;15.090;2022-11-13T03:17:19;7.93;;;3.38;;
17662;SDS011;8950;56.892;15.090;2022-11-13T03:19:46;6.55;;;3.78;;
17662;SDS011;8950;56.892;15.090;2022-11-13T03:22:12;6.75;;;3.63;;
17662;SDS011;8950;56.892;15.090;2022-11-13T03:24:38;7.50;;;4.03;;
17662;SDS011;8950;56.892;15.090;2022-11-13T03:27:05;6.05;;;3.97;;
17662;SDS011;8950;56.892;15.090;2022-11-13T03:29:31;7.20;;;3.55;;
17662;SDS011;8950;56.892;15.090;2022-11-13T03:31:57;7.13;;;3.88;;
17662;SDS011;8950;56.892;15.090;2022-11-13T03:34:25;5.18;;;3.92;;
17662;SDS011;8950;56.892;15.090;2022-11-13T03:36:52;9.43;;;3.72;;
17662;SDS011;8950;56.892;15.090;2022-11-13T03:39:18;7.78;;;3.22;;
17662;SDS011;8950;56.892;15.090;2022-11-13T03:41:44;6.70;;;3.53;;
17662;SDS011;8950;56.892;15.090;2022-11-13T03:44:11;9.60;;;3.92;;
17662;SDS011;8950;56.892;15.090;2022-11-13T03:46:37;8.70;;;3.25;;
17662;SDS011;8950;56.892;15.090;2022-11-13T03:49:03;7.88;;;3.80;;
17662;SDS011;8950;56.892;15.090;2022-11-13T03:51:31;6.88;;;3.58;;
17662;SDS011;8950;56.892;15.090;2022-11-13T03:53:58;7.10;;;3.58;;
17662;SDS011;8950;56.892;15.090;2022-11-13T03:56:27;5.75;;;3.25;;
17662;SDS011;8950;56.892;15.090;2022-11-13T03:58:53;6.30;;;3.25;;
17662;SDS011;8950;56.892;15.090;2022-11-13T04:01:20;7.28;;;3.60;;
17662;SDS011;8950;56.892;15.090;2022-11-13T04:03:46;8.90;;;3.65;;
17662;SDS011;8950;56.892;15.090;2022-11-13T04:06:13;5.53;;;3.50;;
17662;SDS011;8950;56.892;15.090;2022-11-13T04:08:41;8.10;;;3.70;;
17662;SDS011;8950;56.892;15.090;2022-11-13T04:11:07;5.20;;;3.33;;
17662;SDS011;8950;56.892;15.090;2022-11-13T04:13:34;8.43;;;3.65;;
17662;SDS011;8950;56.892;15.090;2022-11-13T04:16:00;6.22;;;3.33;;
17662;SDS011;8950;56.892;15.090;2022-11-13T04:18:27;6.03;;;3.35;;
17662;SDS011;8950;56.892;15.090;2022-11-13T04:20:57;8.25;;;3.83;;
17662;SDS011;8950;56.892;15.090;2022-11-13T04:23:23;6.18;;;3.33;;
17662;SDS011;8950;56.892;15.090;2022-11-13T04:25:51;4.53;;;3.08;;
17662;SDS011;8950;56.892;15.090;2022-11-13T04:28:17;5.28;;;3.15;;
17662;SDS011;8950;56.892;15.090;2022-11-13T04:30:44;9.80;;;3.65;;
17662;SDS011;8950;56.892;15.090;2022-11-13T04:33:10;4.97;;;3.22;;
17662;SDS011;8950;56.892;15.090;2022-11-13T04:35:37;8.50;;;3.33;;
17662;SDS011;8950;56.892;15.090;2022-11-13T04:38:05;8.75;;;3.60;;
17662;SDS011;8950;56.892;15.090;2022-11-13T04:40:32;6.35;;;3.72;;
17662;SDS011;8950;56.892;15.090;2022-11-13T04:42:59;8.77;;;3.83;;
17662;SDS011;8950;56.892;15.090;2022-11-13T04:45:25;7.88;;;3.90;;
17662;SDS011;8950;56.892;15.090;2022-11-13T04:47:52;6.68;;;3.65;;
17662;SDS011;8950;56.892;15.090;2022-11-13T04:50:18;6.93;;;3.53;;
17662;SDS011;8950;56.892;15.090;2022-11-13T04:52:45;8.13;;;3.47;;
17662;SDS011;8950;56.892;15.090;2022-11-13T04:55:11;7.07;;;3.60;;
17662;SDS011;8950;56.892;15.090;2022-11-13T04:57:38;6.25;;;3.70;;
17662;SDS011;8950;56.892;15.090;2022-11-13T05:00:07;5.70;;;3.53;;
17662;SDS011;8950;56.892;15.090;2022-11-13T05:02:34;4.68;;;2.97;;
17662;SDS011;8950;56.892;15.090;2022-11-13T05:05:00;7.35;;;3.30;;
17662;SDS011;8950;56.892;15.090;2022-11-13T05:07:27;8.70;;;3.78;;
17662;SDS011;8950;56.892;15.090;2022-11-13T05:09:53;6.55;;;3.13;;
17662;SDS011;8950;56.892;15.090;2022-11-13T05:12:20;7.53;;;3.28;;
17662;SDS011;8950;56.892;15.090;2022-11-13T05:14:46;7.25;;;3.22;;
17662;SDS011;8950;56.892;15.090;2022-11-13T05:17:14;5.95;;;3.42;;
17662;SDS011;8950;56.892;15.090;2022-11-13T05:19:40;6.05;;;3.47;;
17662;SDS011;8950;56.892;15.090;2022-11-13T05:22:07;8.07;;;3.38;;
17662;SDS011;8950;56.892;15.090;2022-11-13T05:24:34;6.82;;;3.40;;
17662;SDS011;8950;56.892;15.090;2022-11-13T05:27:01;6.82;;;3.28;;
17662;SDS011;8950;56.892;15.090;2022-11-13T05:29:27;6.15;;;3.55;;
17662;SDS011;8950;56.892;15.090;2022-11-13T05:31:53;6.18;;;2.97;;
17662;SDS011;8950;56.892;15.090;2022-11-13T05:34:21;6.88;;;3.65;;
17662;SDS011;8950;56.892;15.090;2022-11-13T05:36:48;8.30;;;3.63;;
17662;SDS011;8950;56.892;15.090;2022-11-13T05:39:14;10.00;;;3.33;;
17662;SDS011;8950;56.892;15.090;2022-11-13T05:41:41;9.05;;;3.10;;
17662;SDS011;8950;56.892;15.090;2022-11-13T05:44:07;7.25;;;3.05;;
17662;SDS011;8950;56.892;15.090;2022-11-13T05:46:33;4.97;;;3.15;;
17662;SDS011;8950;56.892;15.090;2022-11-13T05:49:00;5.32;;;3.05;;
17662;SDS011;8950;56.892;15.090;2022-11-13T05:51:29;7.00;;;3.25;;
17662;SDS011;8950;56.892;15.090;2022-11-13T05:53:55;5.75;;;2.92;;
17662;SDS011;8950;56.892;15.090;2022-11-13T05:56:23;4.75;;;2.90;;
17662;SDS011;8950;56.892;15.090;2022-11-13T05:58:50;6.57;;;3.13;;
17662;SDS011;8950;56.892;15.090;2022-11-13T06:01:18;7.63;;;3.30;;
17662;SDS011;8950;56.892;15.090;2022-11-13T06:03:45;6.10;;;3.15;;
17662;SDS011;8950;56.892;15.090;2022-11-13T06:08:48;7.22;;;3.38;;
17662;SDS011;8950;56.892;15.090;2022-11-13T06:11:16;6.80;;;3.38;;
17662;SDS011;8950;56.892;15.090;2022-11-13T06:13:43;5.28;;;2.92;;
17662;SDS011;8950;56.892;15.090;2022-11-13T06:16:10;5.32;;;2.97;;
17662;SDS011;8950;56.892;15.090;2022-11-13T06:18:36;7.32;;;2.90;;
17662;SDS011;8950;56.892;15.090;2022-11-13T06:21:04;6.35;;;3.33;;
17662;SDS011;8950;56.892;15.090;2022-11-13T06:23:31;6.45;;;2.95;;
17662;SDS011;8950;56.892;15.090;2022-11-13T06:26:02;4.90;;;2.90;;
17662;SDS011;8950;56.892;15.090;2022-11-13T06:28:29;5.30;;;3.30;;
17662;SDS011;8950;56.892;15.090;2022-11-13T06:30:55;6.97;;;2.97;;
17662;SDS011;8950;56.892;15.090;2022-11-13T06:33:27;4.50;;;3.15;;
17662;SDS011;8950;56.892;15.090;2022-11-13T06:35:53;4.97;;;2.85;;
17662;SDS011;8950;56.892;15.090;2022-11-13T06:38:19;7.28;;;3.10;;
17662;SDS011;8950;56.892;15.090;2022-11-13T06:40:46;5.97;;;2.97;;
17662;SDS011;8950;56.892;15.090;2022-11-13T06:43:13;6.43;;;3.08;;
17662;SDS011;8950;56.892;15.090;2022-11-13T06:45:40;7.68;;;3.17;;
17662;SDS011;8950;56.892;15.090;2022-11-13T06:48:06;6.20;;;2.60;;
17662;SDS011;8950;56.892;15.090;2022-11-13T06:50:33;6.07;;;3.17;;
17662;SDS011;8950;56.892;15.090;2022-11-13T06:52:59;6.13;;;3.22;;
17662;SDS011;8950;56.892;15.090;2022-11-13T06:55:25;5.78;;;2.80;;
17662;SDS011;8950;56.892;15.090;2022-11-13T06:57:52;7.45;;;3.47;;
17662;SDS011;8950;56.892;15.090;2022-11-13T07:00:20;5.30;;;2.97;;
17662;SDS011;8950;56.892;15.090;2022-11-13T07:02:47;7.03;;;2.65;;
17662;SDS011;8950;56.892;15.090;2022-11-13T07:05:13;3.97;;;2.67;;
17662;SDS011;8950;56.892;15.090;2022-11-13T07:07:40;6.00;;;3.15;;
17662;SDS011;8950;56.892;15.090;2022-11-13T07:10:06;6.93;;;3.03;;
17662;SDS011;8950;56.892;15.090;2022-11-13T07:12:33;8.05;;;3.25;;
17662;SDS011;8950;56.892;15.090;2022-11-13T07:14:59;6.05;;;2.67;;
17662;SDS011;8950;56.892;15.090;2022-11-13T07:17:28;6.10;;;3.05;;
17662;SDS011;8950;56.892;15.090;2022-11-13T07:19:54;4.38;;;2.80;;
17662;SDS011;8950;56.892;15.090;2022-11-13T07:22:20;4.20;;;2.63;;
17662;SDS011;8950;56.892;15.090;2022-11-13T07:24:47;6.78;;;2.50;;
17662;SDS011;8950;56.892;15.090;2022-11-13T07:27:13;5.18;;;2.58;;
17662;SDS011;8950;56.892;15.090;2022-11-13T07:29:40;4.72;;;2.80;;
17662;SDS011;8950;56.892;15.090;2022-11-13T07:32:06;6.07;;;2.85;;
17662;SDS011;8950;56.892;15.090;2022-11-13T07:34:34;5.53;;;2.60;;
17662;SDS011;8950;56.892;15.090;2022-11-13T07:37:00;6.80;;;2.92;;
17662;SDS011;8950;56.892;15.090;2022-11-13T07:39:27;4.43;;;2.40;;
17662;SDS011;8950;56.892;15.090;2022-11-13T07:41:53;5.07;;;2.75;;
17662;SDS011;8950;56.892;15.090;2022-11-13T07:44:19;7.00;;;2.88;;
17662;SDS011;8950;56.892;15.090;2022-11-13T07:46:46;5.97;;;2.85;;
17662;SDS011;8950;56.892;15.090;2022-11-13T07:49:12;5.30;;;3.38;;
17662;SDS011;8950;56.892;15.090;2022-11-13T07:51:40;5.80;;;2.92;;
17662;SDS011;8950;56.892;15.090;2022-11-13T07:54:06;5.45;;;2.83;;
17662;SDS011;8950;56.892;15.090;2022-11-13T07:56:33;4.50;;;3.17;;
17662;SDS011;8950;56.892;15.090;2022-11-13T07:58:59;7.07;;;3.13;;
17662;SDS011;8950;56.892;15.090;2022-11-13T08:01:25;4.97;;;2.58;;
17662;SDS011;8950;56.892;15.090;2022-11-13T08:03:52;5.00;;;2.80;;
17662;SDS011;8950;56.892;15.090;2022-11-13T08:06:18;6.20;;;3.22;;
17662;SDS011;8950;56.892;15.090;2022-11-13T08:08:47;7.47;;;3.20;;
17662;SDS011;8950;56.892;15.090;2022-11-13T08:11:13;6.15;;;3.17;;
17662;SDS011;8950;56.892;15.090;2022-11-13T08:13:40;6.18;;;3.05;;
17662;SDS011;8950;56.892;15.090;2022-11-13T08:16:06;7.63;;;2.90;;
17662;SDS011;8950;56.892;15.090;2022-11-13T08:18:33;3.30;;;2.50;;
17662;SDS011;8950;56.892;15.090;2022-11-13T08:20:59;4.68;;;2.47;;
17662;SDS011;8950;56.892;15.090;2022-11-13T08:23:26;5.60;;;2.30;;
17662;SDS011;8950;56.892;15.090;2022-11-13T08:25:54;5.63;;;2.53;;
17662;SDS011;8950;56.892;15.090;2022-11-13T08:28:20;4.82;;;2.67;;
17662;SDS011;8950;56.892;15.090;2022-11-13T08:30:46;4.60;;;2.90;;
17662;SDS011;8950;56.892;15.090;2022-11-13T08:33:13;5.00;;;2.63;;
17662;SDS011;8950;56.892;15.090;2022-11-13T08:35:39;7.20;;;2.80;;
17662;SDS011;8950;56.892;15.090;2022-11-13T08:38:06;4.53;;;2.35;;
17662;SDS011;8950;56.892;15.090;2022-11-13T08:40:33;4.03;;;2.83;;
17662;SDS011;8950;56.892;15.090;2022-11-13T08:43:02;5.85;;;3.00;;
17662;SDS011;8950;56.892;15.090;2022-11-13T08:45:29;4.60;;;2.83;;
17662;SDS011;8950;56.892;15.090;2022-11-13T08:47:57;7.10;;;2.95;;
17662;SDS011;8950;56.892;15.090;2022-11-13T08:50:24;7.90;;;3.08;;
17662;SDS011;8950;56.892;15.090;2022-11-13T08:52:52;4.70;;;2.88;;
17662;SDS011;8950;56.892;15.090;2022-11-13T08:55:18;5.43;;;2.78;;
17662;SDS011;8950;56.892;15.090;2022-11-13T08:57:45;5.15;;;2.70;;
17662;SDS011;8950;56.892;15.090;2022-11-13T09:00:13;4.30;;;2.83;;
17662;SDS011;8950;56.892;15.090;2022-11-13T09:02:40;7.18;;;2.90;;
17662;SDS011;8950;56.892;15.090;2022-11-13T09:05:07;4.35;;;2.60;;
17662;SDS011;8950;56.892;15.090;2022-11-13T09:07:33;4.95;;;2.83;;
17662;SDS011;8950;56.892;15.090;2022-11-13T09:09:59;3.50;;;2.65;;
17662;SDS011;8950;56.892;15.090;2022-11-13T09:12:26;7.20;;;2.95;;
17662;SDS011;8950;56.892;15.090;2022-11-13T09:14:52;4.22;;;2.70;;
17662;SDS011;8950;56.892;15.090;2022-11-13T09:17:20;4.97;;;2.70;;
17662;SDS011;8950;56.892;15.090;2022-11-13T09:19:46;4.82;;;2.75;;
17662;SDS011;8950;56.892;15.090;2022-11-13T09:22:13;6.80;;;2.70;;
17662;SDS011;8950;56.892;15.090;2022-11-13T09:24:39;5.35;;;2.65;;
17662;SDS011;8950;56.892;15.090;2022-11-13T09:27:06;2.63;;;2.42;;
17662;SDS011;8950;56.892;15.090;2022-11-13T09:29:32;4.57;;;2.80;;
17662;SDS011;8950;56.892;15.090;2022-11-13T09:32:00;4.60;;;2.65;;
17662;SDS011;8950;56.892;15.090;2022-11-13T09:34:27;5.30;;;2.67;;
17662;SDS011;8950;56.892;15.090;2022-11-13T09:36:54;4.95;;;2.60;;
17662;SDS011;8950;56.892;15.090;2022-11-13T09:39:20;4.47;;;2.60;;
17662;SDS011;8950;56.892;15.090;2022-11-13T09:41:47;5.82;;;2.60;;
17662;SDS011;8950;56.892;15.090;2022-11-13T09:44:16;3.88;;;2.15;;
17662;SDS011;8950;56.892;15.090;2022-11-13T09:46:44;6.07;;;2.67;;
17662;SDS011;8950;56.892;15.090;2022-11-13T09:49:13;3.75;;;2.60;;
17662;SDS011;8950;56.892;15.090;2022-11-13T09:51:42;5.38;;;2.67;;
17662;SDS011;8950;56.892;15.090;2022-11-13T09:54:12;4.28;;;2.20;;
17662;SDS011;8950;56.892;15.090;2022-11-13T09:56:40;4.63;;;2.33;;
17662;SDS011;8950;56.892;15.090;2022-11-13T09:59:12;3.72;;;2.30;;
17662;SDS011;8950;56.892;15.090;2022-11-13T10:01:51;7.95;;;3.08;;
17662;SDS011;8950;56.892;15.090;2022-11-13T10:04:23;5.97;;;2.72;;
17662;SDS011;8950;56.892;15.090;2022-11-13T10:06:57;4.90;;;2.40;;
17662;SDS011;8950;56.892;15.090;2022-11-13T10:09:28;4.50;;;2.58;;
17662;SDS011;8950;56.892;15.090;2022-11-13T10:11:56;5.20;;;2.45;;
17662;SDS011;8950;56.892;15.090;2022-11-13T10:14:34;6.30;;;2.80;;
17662;SDS011;8950;56.892;15.090;2022-11-13T10:17:04;4.55;;;2.88;;
17662;SDS011;8950;56.892;15.090;2022-11-13T10:19:33;4.50;;;2.80;;
17662;SDS011;8950;56.892;15.090;2022-11-13T10:22:13;5.13;;;3.30;;
17662;SDS011;8950;56.892;15.090;2022-11-13T10:24:42;4.63;;;2.80;;
17662;SDS011;8950;56.892;15.090;2022-11-13T10:27:09;6.60;;;2.92;;
17662;SDS011;8950;56.892;15.090;2022-11-13T10:29:36;3.70;;;2.58;;
17662;SDS011;8950;56.892;15.090;2022-11-13T10:32:13;3.85;;;2.67;;
17662;SDS011;8950;56.892;15.090;2022-11-13T10:34:40;6.05;;;3.03;;
17662;SDS011;8950;56.892;15.090;2022-11-13T10:37:26;4.97;;;2.22;;
17662;SDS011;8950;56.892;15.090;2022-11-13T10:39:53;2.25;;;1.90;;
17662;SDS011;8950;56.892;15.090;2022-11-13T10:42:20;3.63;;;2.30;;
17662;SDS011;8950;56.892;15.090;2022-11-13T10:44:51;4.72;;;2.35;;
17662;SDS011;8950;56.892;15.090;2022-11-13T10:47:18;2.92;;;1.83;;
17662;SDS011;8950;56.892;15.090;2022-11-13T10:49:45;3.30;;;2.10;;
17662;SDS011;8950;56.892;15.090;2022-11-13T10:52:15;2.83;;;2.00;;
17662;SDS011;8950;56.892;15.090;2022-11-13T10:54:43;4.28;;;2.38;;
17662;SDS011;8950;56.892;15.090;2022-11-13T10:57:19;3.65;;;2.30;;
17662;SDS011;8950;56.892;15.090;2022-11-13T10:59:46;3.78;;;2.28;;
17662;SDS011;8950;56.892;15.090;2022-11-13T11:02:16;4.40;;;2.15;;
17662;SDS011;8950;56.892;15.090;2022-11-13T11:04:43;4.20;;;2.50;;
17662;SDS011;8950;56.892;15.090;2022-11-13T11:07:11;3.60;;;2.22;;
17662;SDS011;8950;56.892;15.090;2022-11-13T11:09:39;5.60;;;2.35;;
17662;SDS011;8950;56.892;15.090;2022-11-13T11:12:10;3.03;;;2.05;;
17662;SDS011;8950;56.892;15.090;2022-11-13T11:14:46;3.97;;;2.42;;
17662;SDS011;8950;56.892;15.090;2022-11-13T11:17:18;4.18;;;2.80;;
17662;SDS011;8950;56.892;15.090;2022-11-13T11:19:46;5.43;;;2.25;;
17662;SDS011;8950;56.892;15.090;2022-11-13T11:22:21;3.63;;;2.17;;
17662;SDS011;8950;56.892;15.090;2022-11-13T11:24:50;6.07;;;2.60;;
17662;SDS011;8950;56.892;15.090;2022-11-13T11:27:32;4.32;;;2.50;;
17662;SDS011;8950;56.892;15.090;2022-11-13T11:30:00;3.85;;;2.65;;
17662;SDS011;8950;56.892;15.090;2022-11-13T11:32:30;5.25;;;2.53;;
17662;SDS011;8950;56.892;15.090;2022-11-13T11:34:59;3.50;;;2.22;;
17662;SDS011;8950;56.892;15.090;2022-11-13T11:37:27;3.13;;;2.17;;
17662;SDS011;8950;56.892;15.090;2022-11-13T11:39:56;5.43;;;1.95;;
17662;SDS011;8950;56.892;15.090;2022-11-13T11:42:27;3.22;;;2.08;;
17662;SDS011;8950;56.892;15.090;2022-11-13T11:44:59;3.65;;;2.20;;
17662;SDS011;8950;56.892;15.090;2022-11-13T11:47:26;1.95;;;1.75;;
17662;SDS011;8950;56.892;15.090;2022-11-13T11:49:53;1.90;;;1.50;;
17662;SDS011;8950;56.892;15.090;2022-11-13T11:52:26;1.70;;;1.60;;
17662;SDS011;8950;56.892;15.090;2022-11-13T11:54:57;2.10;;;1.55;;
17662;SDS011;8950;56.892;15.090;2022-11-13T11:57:32;2.17;;;1.70;;
17662;SDS011;8950;56.892;15.090;2022-11-13T12:00:03;1.95;;;1.75;;
17662;SDS011;8950;56.892;15.090;2022-11-13T12:02:43;2.42;;;1.42;;
17662;SDS011;8950;56.892;15.090;2022-11-13T12:05:16;2.58;;;1.90;;
17662;SDS011;8950;56.892;15.090;2022-11-13T12:07:47;2.35;;;1.75;;
17662;SDS011;8950;56.892;15.090;2022-11-13T12:10:23;3.58;;;1.70;;
17662;SDS011;8950;56.892;15.090;2022-11-13T12:12:56;3.53;;;1.83;;
17662;SDS011;8950;56.892;15.090;2022-11-13T12:15:24;3.17;;;1.83;;
17662;SDS011;8950;56.892;15.090;2022-11-13T12:17:54;3.65;;;1.80;;
17662;SDS011;8950;56.892;15.090;2022-11-13T12:20:24;2.35;;;1.60;;
17662;SDS011;8950;56.892;15.090;2022-11-13T12:22:54;3.20;;;1.95;;
17662;SDS011;8950;56.892;15.090;2022-11-13T12:25:27;2.45;;;1.48;;
17662;SDS011;8950;56.892;15.090;2022-11-13T12:27:57;2.58;;;1.75;;
17662;SDS011;8950;56.892;15.090;2022-11-13T12:30:26;2.25;;;2.05;;
17662;SDS011;8950;56.892;15.090;2022-11-13T12:33:04;1.65;;;1.48;;
17662;SDS011;8950;56.892;15.090;2022-11-13T12:35:32;2.40;;;1.73;;
17662;SDS011;8950;56.892;15.090;2022-11-13T12:37:59;4.25;;;3.58;;
17662;SDS011;8950;56.892;15.090;2022-11-13T12:40:30;1.48;;;1.38;;
17662;SDS011;8950;56.892;15.090;2022-11-13T12:43:06;3.20;;;2.90;;
17662;SDS011;8950;56.892;15.090;2022-11-13T12:45:45;2.75;;;2.20;;
17662;SDS011;8950;56.892;15.090;2022-11-13T12:48:20;2.78;;;2.00;;
17662;SDS011;8950;56.892;15.090;2022-11-13T12:50:55;1.88;;;1.60;;
17662;SDS011;8950;56.892;15.090;2022-11-13T12:53:23;2.03;;;1.75;;
17662;SDS011;8950;56.892;15.090;2022-11-13T12:55:53;2.05;;;1.50;;
17662;SDS011;8950;56.892;15.090;2022-11-13T12:58:25;1.67;;;1.45;;
17662;SDS011;8950;56.892;15.090;2022-11-13T13:00:53;2.15;;;1.60;;
17662;SDS011;8950;56.892;15.090;2022-11-13T13:03:26;2.25;;;1.75;;
17662;SDS011;8950;56.892;15.090;2022-11-13T13:06:03;1.85;;;1.58;;
17662;SDS011;8950;56.892;15.090;2022-11-13T13:08:41;3.67;;;1.73;;
17662;SDS011;8950;56.892;15.090;2022-11-13T13:11:11;2.15;;;1.67;;
17662;SDS011;8950;56.892;15.090;2022-11-13T13:13:42;2.05;;;1.65;;
17662;SDS011;8950;56.892;15.090;2022-11-13T13:16:10;2.10;;;1.77;;
17662;SDS011;8950;56.892;15.090;2022-11-13T13:18:37;1.70;;;1.60;;
17662;SDS011;8950;56.892;15.090;2022-11-13T13:21:05;3.47;;;1.80;;
17662;SDS011;8950;56.892;15.090;2022-11-13T13:23:35;3.08;;;1.90;;
17662;SDS011;8950;56.892;15.090;2022-11-13T13:26:03;2.15;;;1.95;;
17662;SDS011;8950;56.892;15.090;2022-11-13T13:28:29;2.45;;;1.83;;
17662;SDS011;8950;56.892;15.090;2022-11-13T13:30:59;2.13;;;1.63;;
17662;SDS011;8950;56.892;15.090;2022-11-13T13:33:29;2.42;;;1.70;;
17662;SDS011;8950;56.892;15.090;2022-11-13T13:36:00;2.28;;;1.88;;
17662;SDS011;8950;56.892;15.090;2022-11-13T13:38:31;2.40;;;1.80;;
17662;SDS011;8950;56.892;15.090;2022-11-13T13:41:03;2.80;;;1.92;;
17662;SDS011;8950;56.892;15.090;2022-11-13T13:43:38;2.08;;;1.60;;
17662;SDS011;8950;56.892;15.090;2022-11-13T13:46:09;1.88;;;1.70;;
17662;SDS011;8950;56.892;15.090;2022-11-13T13:48:38;1.88;;;1.60;;
17662;SDS011;8950;56.892;15.090;2022-11-13T13:51:10;2.10;;;1.88;;
17662;SDS011;8950;56.892;15.090;2022-11-13T13:53:39;2.10;;;1.70;;
17662;SDS011;8950;56.892;15.090;2022-11-13T13:56:08;3.65;;;1.90;;
17662;SDS011;8950;56.892;15.090;2022-11-13T13:58:35;6.65;;;4.75;;
17662;SDS011;8950;56.892;15.090;2022-11-13T14:01:03;3.53;;;2.60;;
17662;SDS011;8950;56.892;15.090;2022-11-13T14:03:31;2.55;;;2.03;;
17662;SDS011;8950;56.892;15.090;2022-11-13T14:06:06;2.90;;;2.47;;
17662;SDS011;8950;56.892;15.090;2022-11-13T14:08:33;2.65;;;2.20;;
17662;SDS011;8950;56.892;15.090;2022-11-13T14:11:01;2.42;;;2.20;;
17662;SDS011;8950;56.892;15.090;2022-11-13T14:14:05;2.28;;;2.08;;
17662;SDS011;8950;56.892;15.090;2022-11-13T14:16:18;1.90;;;1.80;;
17662;SDS011;8950;56.892;15.090;2022-11-13T14:18:45;3.65;;;2.22;;
17662;SDS011;8950;56.892;15.090;2022-11-13T14:21:12;3.83;;;2.20;;
17662;SDS011;8950;56.892;15.090;2022-11-13T14:23:41;2.22;;;2.00;;
17662;SDS011;8950;56.892;15.090;2022-11-13T14:26:08;4.18;;;2.10;;
17662;SDS011;8950;56.892;15.090;2022-11-13T14:28:41;2.00;;;1.80;;
17662;SDS011;8950;56.892;15.090;2022-11-13T14:31:09;3.15;;;1.80;;
17662;SDS011;8950;56.892;15.090;2022-11-13T14:33:39;2.75;;;1.90;;
17662;SDS011;8950;56.892;15.090;2022-11-13T14:36:08;2.60;;;2.03;;
17662;SDS011;8950;56.892;15.090;2022-11-13T14:38:38;2.00;;;1.80;;
17662;SDS011;8950;56.892;15.090;2022-11-13T14:41:05;2.03;;;1.83;;
17662;SDS011;8950;56.892;15.090;2022-11-13T14:43:32;2.10;;;1.80;;
17662;SDS011;8950;56.892;15.090;2022-11-13T14:45:59;3.28;;;2.15;;
17662;SDS011;8950;56.892;15.090;2022-11-13T14:48:26;2.25;;;2.05;;
17662;SDS011;8950;56.892;15.090;2022-11-13T14:50:55;2.55;;;1.70;;
17662;SDS011;8950;56.892;15.090;2022-11-13T14:53:25;2.00;;;1.77;;
17662;SDS011;8950;56.892;15.090;2022-11-13T14:55:53;2.20;;;1.95;;
17662;SDS011;8950;56.892;15.090;2022-11-13T14:58:27;2.00;;;1.90;;